| time (UTC) | temp C | wind direction | speed KPH | gust KPH | rain 1hr cm | rain 24hr cm | rain mn cm | humidity % | barometer mb |
| 20260903051525 | 27 | 232 | 3.2 | 3.2 | 0.00 | 0.00 | 0.00 | 84 | 1014.9 |
| 20260903051021 | 27 | 232 | 3.2 | 3.2 | 0.00 | 0.00 | 0.00 | 84 | 1014.7 |
| 20260903050520 | 27 | 211 | 4.8 | 4.8 | 0.00 | 0.00 | 0.00 | 83 | 1015.0 |
| 20260903050016 | 27 | 229 | 1.6 | 1.6 | 0.00 | 0.00 | 0.00 | 83 | 1014.9 |
| 20260903045510 | -17 | 0.0 | 0.0 | 0.00 | 0.00 | 0.00 | 1014.9 | ||
| 20260903045007 | -17 | 0.0 | 0.0 | 0.00 | 0.00 | 0.00 | 1014.7 | ||
| 20260903044503 | -17 | 0.0 | 0.0 | 0.00 | 0.00 | 0.00 | 1014.6 | ||
| 20260903043958 | -17 | 0.0 | 0.0 | 0.00 | 0.00 | 0.00 | 1014.8 | ||
| 20260903043454 | -17 | 0.0 | 0.0 | 0.00 | 0.00 | 0.00 | 1015.0 | ||
| 20260903042952 | -17 | 0.0 | 0.0 | 0.00 | 0.00 | 0.00 | 1014.8 | ||
| 20260903042447 | -17 | 0.0 | 0.0 | 0.00 | 0.00 | 0.00 | 1014.8 | ||
| 20260903041943 | -17 | 0.0 | 0.0 | 0.00 | 0.00 | 0.00 | 1014.6 | ||
| 20260903041439 | -17 | 0.0 | 0.0 | 0.00 | 0.00 | 0.00 | 1014.5 | ||
| 20260903040935 | 28 | 227 | 6.4 | 8.0 | 0.00 | 0.00 | 0.00 | 79 | 1014.6 |
| 20260903040434 | 28 | 227 | 6.4 | 8.0 | 0.00 | 0.00 | 0.00 | 79 | 1014.5 |
| 20260903035930 | 28 | 227 | 6.4 | 8.0 | 0.00 | 0.00 | 0.00 | 79 | 1014.4 |
| 20260903035425 | 28 | 227 | 6.4 | 8.0 | 0.00 | 0.00 | 0.00 | 79 | 1014.4 |
| 20260903034920 | 28 | 227 | 6.4 | 8.0 | 0.00 | 0.00 | 0.00 | 79 | 1014.4 |
| 20260903034415 | 28 | 227 | 6.4 | 8.0 | 0.00 | 0.00 | 0.00 | 79 | 1014.2 |
| 20260903033910 | 28 | 227 | 6.4 | 8.0 | 0.00 | 0.00 | 0.00 | 79 | 1014.6 |
| 20260903033406 | 28 | 227 | 6.4 | 8.0 | 0.00 | 0.00 | 0.00 | 79 | 1014.5 |
| 20260903032906 | 28 | 227 | 6.4 | 8.0 | 0.00 | 0.00 | 0.00 | 79 | 1014.3 |
| 20260903032401 | 28 | 227 | 6.4 | 8.0 | 0.00 | 0.00 | 0.00 | 79 | 1014.5 |
| 20260903031856 | 28 | 227 | 6.4 | 8.0 | 0.00 | 0.00 | 0.00 | 79 | 1014.7 |
| 20260903031355 | 28 | 227 | 6.4 | 8.0 | 0.00 | 0.00 | 0.00 | 79 | 1014.8 |
| 20260903030851 | 28 | 218 | 11.3 | 12.9 | 0.00 | 0.00 | 0.00 | 79 | 1014.8 |
| 20260903030347 | 28 | 226 | 4.8 | 4.8 | 0.00 | 0.00 | 0.00 | 79 | 1014.8 |
| 20260903025843 | 28 | 195 | 8.0 | 11.3 | 0.00 | 0.00 | 0.00 | 79 | 1014.9 |
| 20260903025338 | 28 | 212 | 4.8 | 8.0 | 0.00 | 0.00 | 0.00 | 79 | 1015.1 |
| 20260903024837 | 28 | 230 | 4.8 | 8.0 | 0.00 | 0.00 | 0.00 | 79 | 1015.3 |
| 20260903024332 | 28 | 233 | 6.4 | 9.7 | 0.00 | 0.00 | 0.00 | 79 | 1014.9 |
| 20260903023827 | 28 | 219 | 9.7 | 11.3 | 0.00 | 0.00 | 0.00 | 80 | 1015.1 |
| 20260903023323 | 28 | 245 | 9.7 | 12.9 | 0.00 | 0.00 | 0.00 | 80 | 1015.1 |
| 20260903022818 | 28 | 239 | 4.8 | 9.7 | 0.00 | 0.00 | 0.00 | 80 | 1015.1 |
| 20260903022317 | 28 | 215 | 8.0 | 9.7 | 0.00 | 0.00 | 0.00 | 80 | 1015.1 |
| 20260903021817 | 28 | 206 | 8.0 | 16.1 | 0.00 | 0.00 | 0.00 | 79 | 1015.1 |
| 20260903021313 | 28 | 215 | 6.4 | 9.7 | 0.00 | 0.00 | 0.00 | 79 | 1015.2 |
| 20260903020812 | 28 | 222 | 4.8 | 4.8 | 0.00 | 0.00 | 0.00 | 79 | 1015.0 |
| 20260903020307 | 28 | 194 | 4.8 | 8.0 | 0.00 | 0.00 | 0.00 | 78 | 1015.1 |
| 20260903015802 | 28 | 216 | 4.8 | 11.3 | 0.00 | 0.00 | 0.00 | 78 | 1014.9 |
| 20260903015258 | 28 | 196 | 4.8 | 4.8 | 0.00 | 0.00 | 0.00 | 78 | 1015.2 |
| 20260903014753 | 28 | 223 | 4.8 | 8.0 | 0.00 | 0.00 | 0.00 | 78 | 1015.2 |
| 20260903014253 | 28 | 209 | 6.4 | 8.0 | 0.00 | 0.00 | 0.00 | 77 | 1015.0 |
| 20260903013748 | 28 | 222 | 3.2 | 8.0 | 0.00 | 0.00 | 0.00 | 77 | 1015.1 |
| 20260903013247 | 28 | 238 | 6.4 | 9.7 | 0.00 | 0.00 | 0.00 | 77 | 1015.1 |
| 20260903012745 | 28 | 228 | 6.4 | 9.7 | 0.00 | 0.00 | 0.00 | 76 | 1014.8 |
| 20260903012246 | 28 | 204 | 9.7 | 14.5 | 0.00 | 0.00 | 0.00 | 76 | 1015.2 |
| 20260903011746 | 29 | 226 | 8.0 | 9.7 | 0.00 | 0.00 | 0.00 | 76 | 1015.0 |
| 20260903011245 | 29 | 230 | 4.8 | 8.0 | 0.00 | 0.00 | 0.00 | 76 | 1015.0 |
| 20260903010741 | 29 | 210 | 4.8 | 8.0 | 0.00 | 0.00 | 0.00 | 76 | 1014.9 |
| 20260903010235 | 29 | 231 | 6.4 | 11.3 | 0.00 | 0.00 | 0.00 | 76 | 1015.0 |
| 20260903005734 | 29 | 235 | 8.0 | 11.3 | 0.00 | 0.00 | 0.00 | 75 | 1014.9 |
| 20260903005223 | 29 | 223 | 4.8 | 4.8 | 0.00 | 0.00 | 0.00 | 75 | 1014.9 |
| 20260903004719 | 29 | 238 | 6.4 | 9.7 | 0.00 | 0.00 | 0.00 | 75 | 1014.7 |
| 20260903004214 | 29 | 228 | 4.8 | 4.8 | 0.00 | 0.00 | 0.00 | 75 | 1014.9 |
| 20260903003709 | 30 | 203 | 3.2 | 4.8 | 0.00 | 0.00 | 0.00 | 74 | 1014.6 |
| 20260903003204 | 30 | 209 | 8.0 | 9.7 | 0.00 | 0.00 | 0.00 | 73 | 1014.4 |
| 20260903002654 | 30 | 220 | 4.8 | 9.7 | 0.00 | 0.00 | 0.00 | 73 | 1014.5 |
| 20260903002153 | 30 | 204 | 3.2 | 4.8 | 0.00 | 0.00 | 0.00 | 73 | 1014.7 |
| 20260903001649 | 30 | 225 | 4.8 | 4.8 | 0.00 | 0.00 | 0.00 | 72 | 1014.6 |
| 20260903001143 | 30 | 243 | 6.4 | 8.0 | 0.00 | 0.00 | 0.00 | 72 | 1014.6 |
| 20260903000639 | 30 | 236 | 6.4 | 8.0 | 0.00 | 0.00 | 0.00 | 71 | 1014.6 |
| 20260903000137 | 30 | 217 | 4.8 | 4.8 | 0.00 | 0.00 | 0.00 | 71 | 1014.8 |
| 20260902235636 | 30 | 225 | 4.8 | 4.8 | 0.00 | 0.00 | 0.00 | 70 | 1014.7 |
| 20260902235133 | 30 | 200 | 9.7 | 11.3 | 0.00 | 0.00 | 0.00 | 70 | 1014.5 |
| 20260902234632 | 31 | 224 | 6.4 | 8.0 | 0.00 | 0.00 | 0.00 | 69 | 1014.5 |
| 20260902234131 | 31 | 224 | 6.4 | 8.0 | 0.00 | 0.00 | 0.00 | 69 | 1014.7 |
| 20260902233626 | 31 | 202 | 1.6 | 9.7 | 0.00 | 0.00 | 0.00 | 69 | 1014.4 |
| 20260902233126 | 31 | 211 | 6.4 | 8.0 | 0.00 | 0.00 | 0.00 | 68 | 1014.7 |
| 20260902232626 | 31 | 220 | 8.0 | 11.3 | 0.00 | 0.00 | 0.00 | 68 | 1014.4 |
| 20260902232124 | 31 | 230 | 6.4 | 11.3 | 0.00 | 0.00 | 0.00 | 67 | 1014.4 |
| 20260902231619 | 31 | 186 | 6.4 | 9.7 | 0.00 | 0.00 | 0.00 | 67 | 1014.6 |
| 20260902231119 | 31 | 222 | 3.2 | 3.2 | 0.00 | 0.00 | 0.00 | 67 | 1014.6 |
| 20260902230614 | 31 | 233 | 3.2 | 3.2 | 0.00 | 0.00 | 0.00 | 66 | 1014.5 |
| 20260902230112 | 32 | 260 | 8.0 | 9.7 | 0.00 | 0.00 | 0.00 | 65 | 1014.7 |
| 20260902225608 | 32 | 277 | 8.0 | 16.1 | 0.00 | 0.00 | 0.00 | 65 | 1014.7 |
| 20260902225108 | 32 | 238 | 4.8 | 4.8 | 0.00 | 0.00 | 0.00 | 65 | 1014.6 |
| 20260902224606 | 32 | 316 | 9.7 | 12.9 | 0.00 | 0.00 | 0.00 | 63 | 1014.6 |
| 20260902224057 | 32 | 202 | 8.0 | 12.9 | 0.00 | 0.00 | 0.00 | 63 | 1014.7 |
| 20260902223553 | 32 | 219 | 11.3 | 16.1 | 0.00 | 0.00 | 0.00 | 63 | 1014.6 |
| 20260902223052 | 32 | 229 | 4.8 | 16.1 | 0.00 | 0.00 | 0.00 | 63 | 1014.6 |
| 20260902222551 | 32 | 179 | 4.8 | 14.5 | 0.00 | 0.00 | 0.00 | 62 | 1014.7 |
| 20260902222049 | 32 | 221 | 4.8 | 16.1 | 0.00 | 0.00 | 0.00 | 62 | 1014.8 |
| 20260902221544 | 32 | 198 | 9.7 | 11.3 | 0.00 | 0.00 | 0.00 | 62 | 1014.7 |
| 20260902221039 | 32 | 223 | 6.4 | 14.5 | 0.00 | 0.00 | 0.00 | 61 | 1014.8 |
| 20260902220535 | 32 | 199 | 17.7 | 20.9 | 0.00 | 0.00 | 0.00 | 60 | 1014.8 |
| 20260902220035 | 33 | 228 | 9.7 | 11.3 | 0.00 | 0.00 | 0.00 | 60 | 1014.8 |
| 20260902215531 | 33 | 238 | 1.6 | 3.2 | 0.00 | 0.00 | 0.00 | 60 | 1014.6 |
| 20260902215026 | 33 | 266 | 9.7 | 11.3 | 0.00 | 0.00 | 0.00 | 60 | 1014.6 |
| 20260902214526 | 33 | 222 | 11.3 | 12.9 | 0.00 | 0.00 | 0.00 | 59 | 1014.6 |
| 20260902214025 | 33 | 246 | 4.8 | 8.0 | 0.00 | 0.00 | 0.00 | 59 | 1014.8 |
| 20260902213521 | 33 | 226 | 9.7 | 12.9 | 0.00 | 0.00 | 0.00 | 58 | 1014.8 |
| 20260902213020 | 33 | 226 | 9.7 | 12.9 | 0.00 | 0.00 | 0.00 | 58 | 1014.7 |
| 20260902212516 | 33 | 213 | 9.7 | 12.9 | 0.00 | 0.00 | 0.00 | 59 | 1014.7 |
| 20260902212012 | 33 | 216 | 9.7 | 11.3 | 0.00 | 0.00 | 0.00 | 59 | 1014.6 |
| 20260902211508 | 33 | 216 | 9.7 | 11.3 | 0.00 | 0.00 | 0.00 | 59 | 1014.6 |
| 20260902211003 | 33 | 216 | 9.7 | 11.3 | 0.00 | 0.00 | 0.00 | 59 | 1014.7 |
| 20260902210503 | 33 | 216 | 9.7 | 11.3 | 0.00 | 0.00 | 0.00 | 59 | 1014.7 |
| 20260902210001 | 33 | 184 | 19.3 | 24.1 | 0.00 | 0.00 | 0.00 | 62 | 1015.1 |
| 20260902205456 | 33 | 184 | 19.3 | 24.1 | 0.00 | 0.00 | 0.00 | 62 | 1014.9 |
| 20260902204952 | 33 | 184 | 19.3 | 24.1 | 0.00 | 0.00 | 0.00 | 62 | 1014.9 |
| 20260902204451 | 33 | 236 | 14.5 | 20.9 | 0.00 | 0.00 | 0.00 | 61 | 1014.9 |
| 20260902203946 | 33 | 236 | 14.5 | 20.9 | 0.00 | 0.00 | 0.00 | 61 | 1014.8 |
| 20260902203442 | 33 | 236 | 14.5 | 20.9 | 0.00 | 0.00 | 0.00 | 61 | 1015.1 |
| 20260902202940 | 33 | 236 | 14.5 | 20.9 | 0.00 | 0.00 | 0.00 | 61 | 1015.3 |
| 20260902202437 | 33 | 236 | 14.5 | 20.9 | 0.00 | 0.00 | 0.00 | 61 | 1015.3 |
| 20260902201934 | 33 | 236 | 14.5 | 20.9 | 0.00 | 0.00 | 0.00 | 61 | 1015.3 |
| 20260902201429 | 33 | 224 | 6.4 | 8.0 | 0.00 | 0.00 | 0.00 | 63 | 1015.2 |
| 20260902200928 | 33 | 224 | 6.4 | 8.0 | 0.00 | 0.00 | 0.00 | 63 | 1015.5 |
| 20260902200423 | 33 | 224 | 6.4 | 8.0 | 0.00 | 0.00 | 0.00 | 63 | 1015.5 |
| 20260902195919 | 33 | 224 | 6.4 | 8.0 | 0.00 | 0.00 | 0.00 | 63 | 1015.6 |
| 20260902195414 | 33 | 224 | 6.4 | 8.0 | 0.00 | 0.00 | 0.00 | 63 | 1015.5 |
| 20260902194908 | 33 | 224 | 6.4 | 8.0 | 0.00 | 0.00 | 0.00 | 63 | 1015.4 |
| 20260902194408 | -17 | 0.0 | 0.0 | 0.00 | 0.00 | 0.00 | 1015.6 | ||
| 20260902193903 | -17 | 0.0 | 0.0 | 0.00 | 0.00 | 0.00 | 1015.8 | ||
| 20260902193359 | 33 | 214 | 4.8 | 4.8 | 0.00 | 0.00 | 0.00 | 61 | 1015.7 |
| 20260902192858 | 33 | 214 | 4.8 | 4.8 | 0.00 | 0.00 | 0.00 | 61 | 1015.8 |
| 20260902192357 | 33 | 214 | 4.8 | 4.8 | 0.00 | 0.00 | 0.00 | 61 | 1016.0 |
| 20260902191851 | 33 | 214 | 4.8 | 4.8 | 0.00 | 0.00 | 0.00 | 61 | 1016.1 |
| 20260902191346 | 33 | 214 | 4.8 | 4.8 | 0.00 | 0.00 | 0.00 | 61 | 1016.0 |
| 20260902190836 | 33 | 214 | 4.8 | 4.8 | 0.00 | 0.00 | 0.00 | 61 | 1016.0 |
| 20260902190335 | 33 | 214 | 4.8 | 4.8 | 0.00 | 0.00 | 0.00 | 61 | 1016.2 |
| 20260902185831 | 33 | 214 | 4.8 | 4.8 | 0.00 | 0.00 | 0.00 | 61 | 1016.1 |
| 20260902185327 | 33 | 214 | 4.8 | 4.8 | 0.00 | 0.00 | 0.00 | 61 | 1016.2 |
| 20260902184822 | 33 | 214 | 4.8 | 4.8 | 0.00 | 0.00 | 0.00 | 61 | 1016.2 |
| 20260902184317 | 33 | 214 | 4.8 | 4.8 | 0.00 | 0.00 | 0.00 | 61 | 1016.0 |
| 20260902183813 | 33 | 214 | 4.8 | 4.8 | 0.00 | 0.00 | 0.00 | 61 | 1016.1 |
| 20260902183309 | 33 | 263 | 12.9 | 14.5 | 0.00 | 0.00 | 0.00 | 62 | 1016.2 |
| 20260902182804 | 33 | 263 | 12.9 | 14.5 | 0.00 | 0.00 | 0.00 | 62 | 1016.4 |
| 20260902182256 | 33 | 263 | 12.9 | 14.5 | 0.00 | 0.00 | 0.00 | 62 | 1016.2 |
| 20260902181752 | 33 | 263 | 12.9 | 14.5 | 0.00 | 0.00 | 0.00 | 62 | 1016.6 |
| 20260902181252 | 33 | 263 | 12.9 | 14.5 | 0.00 | 0.00 | 0.00 | 62 | 1016.6 |
| 20260902180746 | -17 | 0.0 | 0.0 | 0.00 | 0.00 | 0.00 | 1016.4 | ||
| 20260902180242 | -17 | 0.0 | 0.0 | 0.00 | 0.00 | 0.00 | 1016.4 | ||
| 20260902175737 | -17 | 0.0 | 0.0 | 0.00 | 0.00 | 0.00 | 1016.3 | ||
| 20260902175233 | -17 | 0.0 | 0.0 | 0.00 | 0.00 | 0.00 | 1016.5 | ||
| 20260902174728 | -17 | 0.0 | 0.0 | 0.00 | 0.00 | 0.00 | 1016.7 | ||
| 20260902174224 | -17 | 0.0 | 0.0 | 0.00 | 0.00 | 0.00 | 1016.6 | ||
| 20260902173720 | -17 | 0.0 | 0.0 | 0.00 | 0.00 | 0.00 | 1017.0 | ||
| 20260902173220 | -17 | 0.0 | 0.0 | 0.00 | 0.00 | 0.00 | 1017.0 | ||
| 20260902172714 | -17 | 0.0 | 0.0 | 0.00 | 0.00 | 0.00 | 1017.2 | ||
| 20260902172214 | -17 | 0.0 | 0.0 | 0.00 | 0.00 | 0.00 | 1017.1 | ||
| 20260902171709 | -17 | 0.0 | 0.0 | 0.00 | 0.00 | 0.00 | 1017.1 | ||
| 20260902171205 | -17 | 0.0 | 0.0 | 0.00 | 0.00 | 0.00 | 1017.3 | ||
| 20260902170701 | -17 | 0.0 | 0.0 | 0.00 | 0.00 | 0.00 | 1017.3 | ||
| 20260902170155 | -17 | 0.0 | 0.0 | 0.00 | 0.00 | 0.00 | 1017.1 | ||
| 20260902165651 | -17 | 0.0 | 0.0 | 0.00 | 0.00 | 0.00 | 1017.4 | ||
| 20260902165150 | -17 | 0.0 | 0.0 | 0.00 | 0.00 | 0.00 | 1017.2 | ||
| 20260902164646 | -17 | 0.0 | 0.0 | 0.00 | 0.00 | 0.00 | 1017.4 | ||
| 20260902164144 | -17 | 0.0 | 0.0 | 0.00 | 0.00 | 0.00 | 1017.3 | ||
| 20260902163639 | -17 | 0.0 | 0.0 | 0.00 | 0.00 | 0.00 | 1017.4 | ||
| 20260902163139 | -17 | 0.0 | 0.0 | 0.00 | 0.00 | 0.00 | 1017.4 | ||
| 20260902162638 | -17 | 0.0 | 0.0 | 0.00 | 0.00 | 0.00 | 1017.3 | ||
| 20260902162133 | -17 | 0.0 | 0.0 | 0.00 | 0.00 | 0.00 | 1017.2 | ||
| 20260902161627 | -17 | 0.0 | 0.0 | 0.00 | 0.00 | 0.00 | 1017.3 | ||
| 20260902161123 | -17 | 0.0 | 0.0 | 0.00 | 0.00 | 0.00 | 1017.1 | ||
| 20260902160615 | -17 | 0.0 | 0.0 | 0.00 | 0.00 | 0.00 | 1017.3 | ||
| 20260902160109 | 28 | 213 | 6.4 | 9.7 | 0.00 | 0.00 | 0.00 | 79 | 1017.7 |
| 20260902155607 | 28 | 213 | 6.4 | 9.7 | 0.00 | 0.00 | 0.00 | 79 | 1017.2 |
| 20260902155106 | 28 | 213 | 6.4 | 9.7 | 0.00 | 0.00 | 0.00 | 79 | 1017.3 |
| 20260902154601 | 28 | 213 | 6.4 | 9.7 | 0.00 | 0.00 | 0.00 | 79 | 1017.4 |
| 20260902154056 | 28 | 213 | 6.4 | 9.7 | 0.00 | 0.00 | 0.00 | 79 | 1017.3 |
| 20260902153554 | 28 | 213 | 6.4 | 9.7 | 0.00 | 0.00 | 0.00 | 79 | 1017.4 |
| 20260902153050 | 28 | 213 | 6.4 | 9.7 | 0.00 | 0.00 | 0.00 | 79 | 1017.4 |
| 20260902152541 | 28 | 213 | 6.4 | 9.7 | 0.00 | 0.00 | 0.00 | 79 | 1017.3 |
| 20260902152036 | 28 | 213 | 6.4 | 9.7 | 0.00 | 0.00 | 0.00 | 79 | 1017.3 |
| 20260902151532 | 28 | 213 | 6.4 | 9.7 | 0.00 | 0.00 | 0.00 | 79 | 1017.3 |
| 20260902151031 | 28 | 213 | 6.4 | 9.7 | 0.00 | 0.00 | 0.00 | 79 | 1017.3 |
| 20260902150526 | 28 | 213 | 6.4 | 9.7 | 0.00 | 0.00 | 0.00 | 79 | 1017.2 |
| 20260902150022 | 28 | 204 | 8.0 | 11.3 | 0.00 | 0.00 | 0.00 | 80 | 1017.4 |
| 20260902145516 | 28 | 235 | 6.4 | 9.7 | 0.00 | 0.00 | 0.00 | 77 | 1017.4 |
| 20260902145011 | 28 | 235 | 6.4 | 9.7 | 0.00 | 0.00 | 0.00 | 77 | 1017.2 |
| 20260902144508 | 28 | 235 | 6.4 | 9.7 | 0.00 | 0.00 | 0.00 | 77 | 1017.0 |
| 20260902144008 | 28 | 235 | 6.4 | 9.7 | 0.00 | 0.00 | 0.00 | 77 | 1017.1 |
| 20260902143503 | 28 | 235 | 6.4 | 9.7 | 0.00 | 0.00 | 0.00 | 77 | 1017.1 |
| 20260902142958 | 28 | 235 | 6.4 | 9.7 | 0.00 | 0.00 | 0.00 | 77 | 1017.1 |
| 20260902142448 | 28 | 243 | 6.4 | 8.0 | 0.00 | 0.00 | 0.00 | 77 | 1017.1 |
| 20260902141948 | 28 | 151 | 6.4 | 9.7 | 0.00 | 0.00 | 0.00 | 77 | 1017.0 |
| 20260902141443 | 28 | 234 | 3.2 | 4.8 | 0.00 | 0.00 | 0.00 | 77 | 1017.2 |
| 20260902140938 | 28 | 227 | 6.4 | 9.7 | 0.00 | 0.00 | 0.00 | 77 | 1016.8 |
| 20260902140433 | 28 | 224 | 3.2 | 4.8 | 0.00 | 0.00 | 0.00 | 77 | 1017.2 |
| 20260902135933 | 27 | 209 | 1.6 | 9.7 | 0.00 | 0.00 | 0.00 | 79 | 1016.8 |
| 20260902135429 | 27 | 208 | 8.0 | 11.3 | 0.00 | 0.00 | 0.00 | 80 | 1017.0 |
| 20260902134927 | 27 | 217 | 9.7 | 12.9 | 0.00 | 0.00 | 0.00 | 80 | 1017.1 |
| 20260902134423 | 26 | 225 | 4.8 | 8.0 | 0.00 | 0.00 | 0.00 | 82 | 1017.1 |
| 20260902133918 | 26 | 213 | 1.6 | 4.8 | 0.00 | 0.00 | 0.00 | 83 | 1017.2 |
| 20260902133413 | 26 | 219 | 4.8 | 4.8 | 0.00 | 0.00 | 0.00 | 84 | 1017.2 |
| 20260902132908 | 25 | 225 | 3.2 | 3.2 | 0.00 | 0.00 | 0.00 | 87 | 1017.2 |
| 20260902132403 | 25 | 225 | 3.2 | 3.2 | 0.00 | 0.00 | 0.00 | 87 | 1016.8 |
| 20260902131858 | 25 | 225 | 3.2 | 3.2 | 0.00 | 0.00 | 0.00 | 87 | 1017.2 |
| 20260902131355 | 25 | 225 | 3.2 | 3.2 | 0.00 | 0.00 | 0.00 | 87 | 1017.2 |
| 20260902130854 | 25 | 225 | 3.2 | 3.2 | 0.00 | 0.00 | 0.00 | 87 | 1016.8 |
| 20260902130350 | 25 | 225 | 3.2 | 3.2 | 0.00 | 0.00 | 0.00 | 87 | 1017.2 |
| 20260902125844 | 25 | 225 | 3.2 | 3.2 | 0.00 | 0.00 | 0.00 | 87 | 1017.2 |
| 20260902125341 | -17 | 0.0 | 0.0 | 0.00 | 0.00 | 0.00 | 1017.1 | ||
| 20260902124837 | -17 | 0.0 | 0.0 | 0.00 | 0.00 | 0.00 | 1017.0 | ||
| 20260902124332 | -17 | 0.0 | 0.0 | 0.00 | 0.00 | 0.00 | 1017.1 | ||
| 20260902123827 | -17 | 0.0 | 0.0 | 0.00 | 0.00 | 0.00 | 1017.0 | ||
| 20260902123324 | -17 | 0.0 | 0.0 | 0.00 | 0.00 | 0.00 | 1016.8 | ||
| 20260902122822 | -17 | 0.0 | 0.0 | 0.00 | 0.00 | 0.00 | 1016.7 | ||
| 20260902122318 | -17 | 0.0 | 0.0 | 0.00 | 0.00 | 0.00 | 1017.0 | ||
| 20260902121818 | 22 | 221 | 3.2 | 3.2 | 0.00 | 0.00 | 0.00 | 96 | 1017.1 |
| 20260902121313 | 22 | 221 | 3.2 | 3.2 | 0.00 | 0.00 | 0.00 | 96 | 1017.1 |
| 20260902120808 | 22 | 221 | 3.2 | 3.2 | 0.00 | 0.00 | 0.00 | 96 | 1017.2 |
| 20260902120305 | 22 | 221 | 3.2 | 3.2 | 0.00 | 0.00 | 0.00 | 96 | 1017.0 |
| 20260902115805 | 22 | 221 | 3.2 | 3.2 | 0.00 | 0.00 | 0.00 | 96 | 1017.0 |
| 20260902115306 | 22 | 221 | 3.2 | 3.2 | 0.00 | 0.00 | 0.00 | 96 | 1017.0 |
| 20260902114758 | 22 | 221 | 3.2 | 3.2 | 0.00 | 0.00 | 0.00 | 96 | 1017.0 |
| 20260902114254 | 22 | 221 | 3.2 | 3.2 | 0.00 | 0.00 | 0.00 | 96 | 1016.8 |
| 20260902113754 | 22 | 221 | 3.2 | 3.2 | 0.00 | 0.00 | 0.00 | 96 | 1016.7 |
| 20260902113249 | 22 | 221 | 3.2 | 3.2 | 0.00 | 0.00 | 0.00 | 96 | 1017.1 |
| 20260902112748 | 22 | 221 | 3.2 | 3.2 | 0.00 | 0.00 | 0.00 | 96 | 1016.6 |
| 20260902112246 | 22 | 221 | 3.2 | 3.2 | 0.00 | 0.00 | 0.00 | 96 | 1016.8 |
| 20260902111741 | 22 | 212 | 4.8 | 4.8 | 0.00 | 0.00 | 0.00 | 96 | 1016.5 |
| 20260902111237 | 22 | 212 | 4.8 | 4.8 | 0.00 | 0.00 | 0.00 | 96 | 1016.4 |
| 20260902110732 | 22 | 212 | 4.8 | 4.8 | 0.00 | 0.00 | 0.00 | 96 | 1016.4 |
| 20260902110228 | 22 | 207 | 1.6 | 3.2 | 0.00 | 0.00 | 0.00 | 97 | 1016.4 |
| 20260902105727 | 22 | 205 | 1.6 | 3.2 | 0.00 | 0.00 | 0.00 | 97 | 1016.5 |
| 20260902105223 | 22 | 212 | 4.8 | 4.8 | 0.00 | 0.00 | 0.00 | 97 | 1016.3 |
| 20260902104718 | 22 | 209 | 4.8 | 4.8 | 0.00 | 0.00 | 0.00 | 97 | 1016.1 |
| 20260902104214 | 22 | 209 | 4.8 | 4.8 | 0.00 | 0.00 | 0.00 | 97 | 1016.3 |
| 20260902103713 | 22 | 209 | 4.8 | 4.8 | 0.00 | 0.00 | 0.00 | 97 | 1016.6 |
| 20260902103208 | 22 | 198 | 1.6 | 1.6 | 0.00 | 0.00 | 0.00 | 96 | 1016.3 |
| 20260902102704 | 22 | 198 | 1.6 | 1.6 | 0.00 | 0.00 | 0.00 | 96 | 1016.3 |
| 20260902102201 | 22 | 198 | 1.6 | 1.6 | 0.00 | 0.00 | 0.00 | 96 | 1016.4 |
| 20260902101701 | 22 | 198 | 1.6 | 1.6 | 0.00 | 0.00 | 0.00 | 96 | 1016.4 |
| 20260902101156 | 22 | 198 | 1.6 | 1.6 | 0.00 | 0.00 | 0.00 | 96 | 1016.4 |
| 20260902100650 | 22 | 198 | 1.6 | 1.6 | 0.00 | 0.00 | 0.00 | 96 | 1016.3 |
| 20260902100145 | 22 | 198 | 1.6 | 1.6 | 0.00 | 0.00 | 0.00 | 96 | 1016.3 |
| 20260902095644 | 22 | 198 | 1.6 | 1.6 | 0.00 | 0.00 | 0.00 | 96 | 1016.3 |
| 20260902095143 | 22 | 220 | 1.6 | 1.6 | 0.00 | 0.00 | 0.00 | 96 | 1016.2 |
| 20260902094638 | 22 | 220 | 1.6 | 1.6 | 0.00 | 0.00 | 0.00 | 96 | 1016.3 |
| 20260902094135 | 22 | 212 | 3.2 | 3.2 | 0.00 | 0.00 | 0.00 | 96 | 1016.5 |
| 20260902093634 | 22 | 167 | 3.2 | 3.2 | 0.00 | 0.00 | 0.00 | 96 | 1016.1 |
| 20260902093129 | 23 | 213 | 1.6 | 3.2 | 0.00 | 0.00 | 0.00 | 96 | 1016.3 |
| 20260902092624 | 23 | 213 | 1.6 | 3.2 | 0.00 | 0.00 | 0.00 | 96 | 1016.1 |
| 20260902092120 | 23 | 213 | 1.6 | 3.2 | 0.00 | 0.00 | 0.00 | 96 | 1016.5 |
| 20260902091614 | 23 | 213 | 1.6 | 3.2 | 0.00 | 0.00 | 0.00 | 96 | 1016.2 |
| 20260902091111 | 23 | 213 | 1.6 | 3.2 | 0.00 | 0.00 | 0.00 | 96 | 1016.2 |
| 20260902090607 | 23 | 213 | 1.6 | 3.2 | 0.00 | 0.00 | 0.00 | 96 | 1016.3 |
| 20260902090105 | 23 | 215 | 3.2 | 3.2 | 0.00 | 0.00 | 0.00 | 95 | 1016.4 |
| 20260902085600 | 23 | 211 | 1.6 | 1.6 | 0.00 | 0.00 | 0.00 | 95 | 1016.2 |
| 20260902085055 | 23 | 211 | 1.6 | 3.2 | 0.00 | 0.00 | 0.00 | 95 | 1016.2 |
| 20260902084551 | 23 | 205 | 1.6 | 3.2 | 0.00 | 0.00 | 0.00 | 95 | 1016.1 |
| 20260902084047 | 23 | 213 | 0.0 | 1.6 | 0.00 | 0.00 | 0.00 | 95 | 1016.4 |
| 20260902083536 | 23 | 218 | 1.6 | 1.6 | 0.00 | 0.00 | 0.00 | 95 | 1016.3 |
| 20260902083036 | 23 | 209 | 1.6 | 1.6 | 0.00 | 0.00 | 0.00 | 95 | 1016.2 |
| 20260902082532 | 23 | 214 | 1.6 | 1.6 | 0.00 | 0.00 | 0.00 | 95 | 1016.1 |
| 20260902082028 | 23 | 219 | 1.6 | 1.6 | 0.00 | 0.00 | 0.00 | 95 | 1016.0 |
| 20260902081524 | 23 | 218 | 0.0 | 1.6 | 0.00 | 0.00 | 0.00 | 94 | 1016.1 |
| 20260902081024 | 23 | 216 | 1.6 | 1.6 | 0.00 | 0.00 | 0.00 | 94 | 1016.2 |
| 20260902080519 | 23 | 213 | 1.6 | 1.6 | 0.00 | 0.00 | 0.00 | 94 | 1016.0 |
| 20260902080016 | 23 | 213 | 1.6 | 1.6 | 0.00 | 0.00 | 0.00 | 94 | 1015.9 |
| 20260902075510 | 23 | 215 | 0.0 | 1.6 | 0.00 | 0.00 | 0.00 | 94 | 1015.9 |
| 20260902075006 | 23 | 220 | 0.0 | 0.0 | 0.00 | 0.00 | 0.00 | 94 | 1015.9 |
| 20260902074501 | 23 | 217 | 0.0 | 1.6 | 0.00 | 0.00 | 0.00 | 93 | 1016.1 |
| 20260902073955 | -17 | 0.0 | 0.0 | 0.00 | 0.00 | 0.00 | 1016.0 | ||
| 20260902073452 | -17 | 0.0 | 0.0 | 0.00 | 0.00 | 0.00 | 1015.9 | ||
| 20260902072948 | -17 | 0.0 | 0.0 | 0.00 | 0.00 | 0.00 | 1016.1 | ||
| 20260902072444 | -17 | 0.0 | 0.0 | 0.00 | 0.00 | 0.00 | 1015.9 | ||
| 20260902071940 | -17 | 0.0 | 0.0 | 0.00 | 0.00 | 0.00 | 1016.1 | ||
| 20260902071439 | -17 | 0.0 | 0.0 | 0.00 | 0.00 | 0.00 | 1015.9 | ||
| 20260902070935 | -17 | 0.0 | 0.0 | 0.00 | 0.00 | 0.00 | 1016.1 | ||
| 20260902070431 | -17 | 0.0 | 0.0 | 0.00 | 0.00 | 0.00 | 1015.9 | ||
| 20260902065929 | -17 | 0.0 | 0.0 | 0.00 | 0.00 | 0.00 | 1016.1 | ||
| 20260902065425 | -17 | 0.0 | 0.0 | 0.00 | 0.00 | 0.00 | 1016.0 | ||
| 20260902064921 | -17 | 0.0 | 0.0 | 0.00 | 0.00 | 0.00 | 1016.0 | ||
| 20260902064416 | 26 | 233 | 3.2 | 3.2 | 0.00 | 0.00 | 0.00 | 85 | 1015.9 |
| 20260902063911 | 26 | 233 | 3.2 | 3.2 | 0.00 | 0.00 | 0.00 | 85 | 1016.0 |
| 20260902063411 | 26 | 233 | 3.2 | 3.2 | 0.00 | 0.00 | 0.00 | 85 | 1016.1 |
| 20260902062906 | 26 | 233 | 3.2 | 3.2 | 0.00 | 0.00 | 0.00 | 85 | 1016.3 |
| 20260902062405 | 26 | 233 | 3.2 | 3.2 | 0.00 | 0.00 | 0.00 | 85 | 1016.2 |
| 20260902061905 | 26 | 233 | 3.2 | 3.2 | 0.00 | 0.00 | 0.00 | 85 | 1016.1 |
| 20260902061401 | 26 | 233 | 3.2 | 3.2 | 0.00 | 0.00 | 0.00 | 85 | 1016.2 |
| 20260902060857 | 26 | 233 | 3.2 | 3.2 | 0.00 | 0.00 | 0.00 | 85 | 1016.2 |
| 20260902060352 | 26 | 233 | 3.2 | 3.2 | 0.00 | 0.00 | 0.00 | 85 | 1016.2 |
| 20260902055848 | 26 | 233 | 3.2 | 3.2 | 0.00 | 0.00 | 0.00 | 85 | 1016.1 |
| 20260902055343 | 26 | 233 | 3.2 | 3.2 | 0.00 | 0.00 | 0.00 | 85 | 1016.2 |
| 20260902054839 | 26 | 233 | 3.2 | 3.2 | 0.00 | 0.00 | 0.00 | 85 | 1016.3 |
| 20260902054335 | 26 | 213 | 1.6 | 3.2 | 0.00 | 0.00 | 0.00 | 85 | 1016.1 |
| 20260902053830 | 26 | 223 | 4.8 | 4.8 | 0.00 | 0.00 | 0.00 | 85 | 1016.0 |
| 20260902053325 | 26 | 223 | 1.6 | 3.2 | 0.00 | 0.00 | 0.00 | 84 | 1016.0 |
| 20260902052824 | 26 | 221 | 1.6 | 3.2 | 0.00 | 0.00 | 0.00 | 84 | 1016.1 |
| 20260902052320 | 26 | 230 | 3.2 | 8.0 | 0.00 | 0.00 | 0.00 | 84 | 1015.9 |